Time;durP1;ratioP1;P1;durP2;ratioP2;P2;SDS_P1;SDS_P2;PMS_P1;PMS_P2;Temp;Humidity;BMP_temperature;BMP_pressure;BME280_temperature;BME280_humidity;BME280_pressure;Samples;Min_cycle;Max_cycle;Signal;HPM_P1;HPM_P2
2023/09/26 00:02:25;;;;;;;16.42;14.77;;;20.90;99.90;;;;;;5055082;28;20477;-81
2023/09/26 00:04:52;;;;;;;16.00;14.38;;;20.90;99.90;;;;;;5072894;28;20389;-80
2023/09/26 00:07:22;;;;;;;16.33;14.30;;;20.80;99.90;;;;;;5072691;28;20024;-81
2023/09/26 00:09:48;;;;;;;17.02;14.63;;;20.80;99.90;;;;;;5070817;28;20128;-81
2023/09/26 00:12:14;;;;;;;16.63;14.50;;;20.80;99.90;;;;;;5054912;28;20066;-81
2023/09/26 00:14:41;;;;;;;17.85;14.05;;;20.80;99.90;;;;;;5072801;28;20024;-80
2023/09/26 00:17:07;;;;;;;15.48;14.07;;;20.80;99.90;;;;;;5071590;28;20094;-81
2023/09/26 00:19:34;;;;;;;14.90;13.52;;;20.90;99.90;;;;;;5070850;28;20066;-80
2023/09/26 00:22:00;;;;;;;15.32;13.88;;;20.80;99.90;;;;;;5071601;28;20082;-80
2023/09/26 00:24:28;;;;;;;15.25;13.85;;;20.80;99.90;;;;;;5072885;28;20161;-80
2023/09/26 00:26:54;;;;;;;14.93;13.63;;;20.80;99.90;;;;;;5071616;28;20393;-80
2023/09/26 00:29:24;;;;;;;15.45;14.05;;;20.80;99.90;;;;;;5070791;28;20020;-80
2023/09/26 00:31:53;;;;;;;14.73;13.23;;;20.90;99.90;;;;;;5054767;28;20037;-81
2023/09/26 00:34:20;;;;;;;15.57;14.00;;;20.70;99.90;;;;;;5072862;28;20095;-81
2023/09/26 00:36:47;;;;;;;14.88;13.35;;;20.80;99.90;;;;;;5056756;28;20112;-80
2023/09/26 00:39:13;;;;;;;15.32;13.73;;;20.70;99.90;;;;;;5071802;28;20059;-81
2023/09/26 00:41:40;;;;;;;18.13;13.70;;;20.70;99.90;;;;;;5055974;28;20024;-81
2023/09/26 00:44:07;;;;;;;14.43;13.00;;;20.70;99.90;;;;;;5073815;28;20104;-81
2023/09/26 00:46:34;;;;;;;14.80;13.50;;;20.70;99.90;;;;;;5074132;28;20056;-81
2023/09/26 00:49:01;;;;;;;15.45;13.75;;;20.70;99.90;;;;;;5075067;28;20120;-81
2023/09/26 00:51:29;;;;;;;17.85;13.65;;;20.70;99.90;;;;;;5074261;28;20024;-81
2023/09/26 00:53:56;;;;;;;15.63;13.70;;;20.70;99.90;;;;;;5074025;28;20024;-81
2023/09/26 00:56:24;;;;;;;14.68;13.45;;;20.70;99.90;;;;;;5081504;28;20051;-80
2023/09/26 00:58:51;;;;;;;15.95;14.30;;;20.60;99.90;;;;;;5090424;28;20024;-80
2023/09/26 01:01:24;;;;;;;15.07;13.52;;;20.60;99.90;;;;;;5091494;28;20028;-81
2023/09/26 01:03:56;;;;;;;14.77;13.30;;;20.60;99.90;;;;;;5091513;28;20028;-80
2023/09/26 01:06:23;;;;;;;14.52;13.38;;;20.70;99.90;;;;;;5091444;28;20028;-81
2023/09/26 01:08:49;;;;;;;16.00;14.18;;;20.70;99.90;;;;;;5090592;28;20504;-81
2023/09/26 01:11:17;;;;;;;14.60;13.20;;;20.70;99.90;;;;;;5090877;28;20039;-81
2023/09/26 01:13:45;;;;;;;16.35;13.23;;;20.70;99.90;;;;;;5092339;28;20024;-81
2023/09/26 01:16:19;;;;;;;14.02;12.85;;;20.70;99.90;;;;;;5092350;28;20078;-80
2023/09/26 01:18:47;;;;;;;14.60;13.05;;;20.70;99.90;;;;;;5090556;28;20032;-80
2023/09/26 01:21:14;;;;;;;16.13;12.75;;;20.70;99.90;;;;;;5076365;28;20027;-80
2023/09/26 01:23:52;;;;;;;14.40;13.10;;;20.70;99.90;;;;;;5077064;28;20028;-81
2023/09/26 01:26:18;;;;;;;15.43;12.63;;;20.70;99.90;;;;;;5074495;28;20105;-81
2023/09/26 01:28:45;;;;;;;14.80;12.50;;;20.70;99.90;;;;;;5076219;28;20070;-80
2023/09/26 01:31:11;;;;;;;15.63;12.27;;;20.80;99.90;;;;;;5095753;28;20099;-80
2023/09/26 01:33:37;;;;;;;14.20;12.32;;;20.80;99.90;;;;;;5077820;28;20046;-80
2023/09/26 01:36:04;;;;;;;15.15;12.30;;;20.80;99.90;;;;;;5094335;28;20162;-81
2023/09/26 01:38:31;;;;;;;13.48;12.10;;;20.80;99.90;;;;;;5095298;28;20050;-81
2023/09/26 01:40:57;;;;;;;13.13;11.85;;;20.80;99.90;;;;;;5074296;28;20068;-81
2023/09/26 01:43:27;;;;;;;15.52;12.20;;;20.80;99.90;;;;;;5074154;28;20452;-80
2023/09/26 01:45:55;;;;;;;13.65;11.80;;;20.80;99.90;;;;;;5092110;28;20020;-80
2023/09/26 01:48:21;;;;;;;15.73;12.25;;;20.70;99.90;;;;;;5094374;28;20020;-81
2023/09/26 01:50:48;;;;;;;14.32;11.77;;;20.70;99.90;;;;;;5094667;28;20016;-80
2023/09/26 01:53:18;;;;;;;13.48;12.00;;;20.60;99.90;;;;;;5077325;28;20032;-81
2023/09/26 01:55:45;;;;;;;14.38;11.90;;;20.60;99.90;;;;;;5084463;28;20098;-81
2023/09/26 01:58:11;;;;;;;16.15;12.48;;;20.50;99.90;;;;;;5074033;28;20033;-81
2023/09/26 02:00:38;;;;;;;17.00;11.90;;;20.50;99.90;;;;;;5073692;28;20389;-81
2023/09/26 02:03:08;;;;;;;16.00;12.43;;;20.50;99.90;;;;;;5075078;28;20492;-80
2023/09/26 02:05:34;;;;;;;15.43;12.25;;;20.50;99.90;;;;;;5088666;28;20473;-81
2023/09/26 02:08:04;;;;;;;18.27;11.88;;;20.60;99.90;;;;;;5076950;28;20055;-80
2023/09/26 02:10:31;;;;;;;12.90;11.70;;;20.60;99.90;;;;;;5093945;28;20042;-80
2023/09/26 02:12:58;;;;;;;15.05;12.00;;;20.60;99.90;;;;;;5094951;28;20023;-81
2023/09/26 02:15:28;;;;;;;13.43;12.10;;;20.50;99.90;;;;;;5093414;28;20063;-81
2023/09/26 02:17:54;;;;;;;12.00;10.93;;;20.50;99.90;;;;;;5077517;28;20035;-80
2023/09/26 02:20:21;;;;;;;13.38;12.27;;;20.50;99.90;;;;;;5095122;28;20020;-81
2023/09/26 02:22:54;;;;;;;15.77;11.77;;;20.50;99.90;;;;;;5093473;28;20035;-81
2023/09/26 02:25:21;;;;;;;13.30;11.30;;;20.50;99.90;;;;;;5074038;28;20408;-80
2023/09/26 02:27:49;;;;;;;14.50;13.02;;;20.50;99.90;;;;;;5094726;28;20039;-80
2023/09/26 02:30:20;;;;;;;12.43;11.35;;;20.50;99.90;;;;;;5094714;28;20389;-80
2023/09/26 02:32:47;;;;;;;22.55;11.80;;;20.40;99.90;;;;;;5093117;28;20024;-81
2023/09/26 02:35:16;;;;;;;14.30;11.60;;;20.40;99.90;;;;;;5073006;28;20105;-80
2023/09/26 02:37:46;;;;;;;15.02;11.80;;;20.40;99.90;;;;;;5093086;28;20055;-81
2023/09/26 02:40:13;;;;;;;12.57;11.40;;;20.30;99.90;;;;;;5093358;28;20539;-80
2023/09/26 02:42:43;;;;;;;15.05;11.63;;;20.30;99.90;;;;;;5076463;28;20070;-81
2023/09/26 02:45:11;;;;;;;12.38;10.95;;;20.20;99.90;;;;;;5072879;28;20061;-80
2023/09/26 02:47:39;;;;;;;15.00;12.77;;;20.20;99.90;;;;;;5093018;28;20024;-81
2023/09/26 02:50:07;;;;;;;12.73;11.52;;;20.10;99.90;;;;;;5076199;28;20024;-81
2023/09/26 02:52:34;;;;;;;13.23;11.75;;;20.10;99.90;;;;;;5092980;28;20024;-81
2023/09/26 02:55:02;;;;;;;12.88;11.23;;;20.10;99.90;;;;;;5072627;28;20028;-81
2023/09/26 02:57:28;;;;;;;13.32;11.38;;;20.00;99.90;;;;;;5071935;28;20135;-81
2023/09/26 02:59:55;;;;;;;13.73;11.50;;;20.00;99.90;;;;;;5089605;28;20059;-81
2023/09/26 03:02:21;;;;;;;14.35;11.23;;;20.00;99.90;;;;;;5072727;28;20048;-81
2023/09/26 03:04:48;;;;;;;11.82;10.73;;;20.00;99.90;;;;;;5074081;28;20141;-81
2023/09/26 03:07:15;;;;;;;11.68;10.73;;;19.90;99.90;;;;;;5072244;28;20504;-81
2023/09/26 03:09:43;;;;;;;16.27;11.48;;;19.90;99.90;;;;;;5072459;28;20111;-82
2023/09/26 03:12:09;;;;;;;11.50;10.55;;;19.90;99.90;;;;;;5072399;28;20098;-84
2023/09/26 03:14:35;;;;;;;20.13;11.65;;;19.90;99.90;;;;;;5073760;28;20020;-83
2023/09/26 03:17:06;;;;;;;15.70;10.82;;;19.80;99.90;;;;;;5055503;28;20514;-84
2023/09/26 03:19:32;;;;;;;11.98;10.73;;;19.80;99.90;;;;;;5072586;28;20051;-83
2023/09/26 03:21:59;;;;;;;13.18;11.10;;;19.80;99.90;;;;;;5072384;28;20032;-84
2023/09/26 03:24:32;;;;;;;15.18;10.95;;;19.80;99.90;;;;;;5072003;28;20490;-84
2023/09/26 03:27:01;;;;;;;16.40;11.20;;;19.80;99.90;;;;;;5071588;28;20032;-83
2023/09/26 03:29:28;;;;;;;15.68;11.63;;;19.80;99.90;;;;;;5051970;28;20123;-82
2023/09/26 03:31:57;;;;;;;12.50;11.23;;;19.80;99.90;;;;;;5072100;28;20443;-83
2023/09/26 03:34:24;;;;;;;12.68;11.27;;;19.70;99.90;;;;;;5089108;28;20029;-83
2023/09/26 03:36:54;;;;;;;16.95;11.38;;;19.80;99.90;;;;;;5072579;28;20444;-83
2023/09/26 03:39:20;;;;;;;12.38;11.20;;;19.80;99.90;;;;;;5072083;28;20040;-84
2023/09/26 03:41:47;;;;;;;15.25;11.40;;;19.70;99.90;;;;;;5072119;28;20111;-84
2023/09/26 03:44:13;;;;;;;13.15;10.98;;;19.70;99.90;;;;;;5071648;28;20044;-84
2023/09/26 03:46:39;;;;;;;12.07;10.75;;;19.80;99.90;;;;;;5071603;28;20028;-83
2023/09/26 03:49:06;;;;;;;18.65;10.75;;;19.80;99.90;;;;;;5071826;28;20132;-84
2023/09/26 03:51:32;;;;;;;12.23;11.02;;;19.80;99.90;;;;;;5072051;28;20050;-83
2023/09/26 03:53:59;;;;;;;12.20;10.60;;;19.80;99.90;;;;;;5072020;28;20032;-84
2023/09/26 03:56:25;;;;;;;17.52;11.07;;;19.90;99.90;;;;;;5089340;28;20494;-87
2023/09/26 03:58:53;;;;;;;11.80;10.52;;;20.00;99.90;;;;;;5073053;28;20496;-85
2023/09/26 04:01:20;;;;;;;14.77;10.93;;;20.00;99.90;;;;;;5072949;28;20064;-86
2023/09/26 04:03:48;;;;;;;12.98;11.10;;;20.00;99.90;;;;;;5089666;28;20400;-86
2023/09/26 04:06:16;;;;;;;14.35;10.65;;;20.10;99.90;;;;;;5072955;28;20029;-87
2023/09/26 04:08:42;;;;;;;13.45;10.27;;;20.20;99.90;;;;;;5072896;28;20024;-85
2023/09/26 04:11:18;;;;;;;11.52;10.52;;;20.20;99.90;;;;;;5056274;28;20033;-87
2023/09/26 04:13:45;;;;;;;14.20;10.65;;;20.30;99.90;;;;;;5072909;28;20853;-87
2023/09/26 04:16:12;;;;;;;17.38;10.70;;;20.30;99.90;;;;;;5073860;28;20058;-86
2023/09/26 04:18:43;;;;;;;11.82;10.60;;;20.30;99.90;;;;;;5089743;28;20040;-86
2023/09/26 04:21:10;;;;;;;14.32;10.88;;;20.20;99.90;;;;;;5073935;28;20111;-87
2023/09/26 04:23:36;;;;;;;11.57;10.55;;;20.20;99.90;;;;;;5056170;28;20124;-86
2023/09/26 04:26:15;;;;;;;11.90;10.70;;;20.20;99.90;;;;;;5072799;28;20035;-87
2023/09/26 04:28:46;;;;;;;11.90;10.65;;;20.20;99.90;;;;;;5089936;28;20116;-87
2023/09/26 04:31:17;;;;;;;16.60;11.10;;;20.20;99.90;;;;;;5073376;28;20036;-87
2023/09/26 04:33:48;;;;;;;12.00;10.88;;;20.20;99.90;;;;;;5072863;28;20028;-87
2023/09/26 04:36:15;;;;;;;12.82;11.00;;;20.30;99.90;;;;;;5072749;28;20035;-88
2023/09/26 04:38:42;;;;;;;11.70;10.90;;;20.30;99.90;;;;;;5072785;28;20093;-88
2023/09/26 04:41:09;;;;;;;12.07;11.00;;;20.40;99.90;;;;;;5072821;28;20029;-86
2023/09/26 04:43:37;;;;;;;11.98;11.00;;;20.40;99.90;;;;;;5072331;28;20107;-87
2023/09/26 04:46:13;;;;;;;13.02;11.70;;;20.50;99.90;;;;;;5089430;28;20078;-86
2023/09/26 04:48:40;;;;;;;14.00;11.85;;;20.50;99.90;;;;;;5089335;28;20052;-87
2023/09/26 04:51:13;;;;;;;12.93;11.63;;;20.60;99.90;;;;;;5089526;28;20041;-86
2023/09/26 04:53:41;;;;;;;15.20;12.45;;;20.60;99.90;;;;;;5089372;28;20056;-87
2023/09/26 04:56:09;;;;;;;13.20;11.95;;;20.70;99.90;;;;;;5095209;28;20056;-86
2023/09/26 04:58:38;;;;;;;15.15;12.75;;;20.60;99.90;;;;;;5096703;28;20056;-88
2023/09/26 05:01:13;;;;;;;14.18;12.88;;;20.60;99.90;;;;;;5079713;28;20118;-89
2023/09/26 05:03:41;;;;;;;13.85;12.57;;;20.60;99.90;;;;;;5079910;28;20508;-87
2023/09/26 05:06:08;;;;;;;14.32;12.95;;;20.70;99.90;;;;;;5077219;28;20020;-87
2023/09/26 05:08:36;;;;;;;14.38;13.15;;;20.80;99.90;;;;;;5079030;28;20481;-86
2023/09/26 05:11:03;;;;;;;14.75;13.38;;;20.80;99.90;;;;;;5079238;28;20020;-86
2023/09/26 05:13:30;;;;;;;15.20;13.60;;;20.80;99.90;;;;;;5078850;28;20035;-86
2023/09/26 05:15:56;;;;;;;15.40;14.10;;;20.80;99.90;;;;;;5078975;28;20047;-85
2023/09/26 05:18:23;;;;;;;15.05;13.95;;;20.80;99.90;;;;;;5095891;28;20043;-86
2023/09/26 05:20:52;;;;;;;15.77;14.32;;;20.70;99.90;;;;;;5078663;28;20020;-86
2023/09/26 05:23:19;;;;;;;15.23;14.13;;;20.70;99.90;;;;;;5078428;28;20614;-86
2023/09/26 05:25:45;;;;;;;15.57;14.13;;;20.70;99.90;;;;;;5078633;28;20031;-86
2023/09/26 05:28:12;;;;;;;15.80;14.00;;;20.70;99.90;;;;;;5060336;28;20025;-85
2023/09/26 05:30:43;;;;;;;17.10;13.77;;;20.70;99.90;;;;;;5091694;28;20033;-85
2023/09/26 05:33:09;;;;;;;15.73;14.05;;;20.80;99.90;;;;;;5074941;28;20024;-86
2023/09/26 05:35:36;;;;;;;16.95;15.23;;;21.00;99.90;;;;;;5109143;28;20032;-87
2023/09/26 05:38:10;;;;;;;19.30;17.90;;;21.30;99.90;;;;;;5091829;28;20047;-85
2023/09/26 05:40:38;;;;;;;23.13;21.23;;;21.60;99.90;;;;;;5075191;28;20025;-86
2023/09/26 05:43:06;;;;;;;23.90;22.00;;;21.90;99.90;;;;;;5091847;28;20154;-86
2023/09/26 05:45:33;;;;;;;24.08;22.25;;;22.40;99.90;;;;;;5085209;28;20020;-86
2023/09/26 05:48:04;;;;;;;22.40;20.90;;;22.70;99.90;;;;;;5095198;28;20016;-88
2023/09/26 05:50:31;;;;;;;24.25;22.40;;;23.00;99.90;;;;;;5078615;28;20027;-85
2023/09/26 05:53:04;;;;;;;25.10;23.40;;;23.40;99.90;;;;;;5078079;28;20024;-86
2023/09/26 05:55:35;;;;;;;26.60;24.63;;;23.80;99.90;;;;;;5071450;28;20036;-86
2023/09/26 05:58:01;;;;;;;26.27;24.42;;;23.40;99.90;;;;;;5061246;28;20058;-86
2023/09/26 06:00:34;;;;;;;25.88;24.10;;;23.10;99.90;;;;;;5061303;28;20185;-85
2023/09/26 06:03:03;;;;;;;26.58;24.33;;;22.80;99.90;;;;;;5078323;28;20032;-87
2023/09/26 06:05:29;;;;;;;25.98;23.90;;;22.70;99.90;;;;;;5077834;28;20023;-86
2023/09/26 06:07:55;;;;;;;25.10;23.52;;;22.60;99.90;;;;;;5060897;28;20066;-83
2023/09/26 06:10:22;;;;;;;25.90;24.20;;;22.50;99.90;;;;;;5105052;28;20114;-82
2023/09/26 06:12:53;;;;;;;25.77;23.95;;;22.80;99.90;;;;;;5115398;28;20023;-82
2023/09/26 06:15:20;;;;;;;26.50;24.50;;;23.40;99.90;;;;;;5115301;28;20024;-82
2023/09/26 06:17:46;;;;;;;26.27;24.50;;;23.60;99.90;;;;;;5115138;28;20027;-82
2023/09/26 06:20:13;;;;;;;26.63;24.42;;;24.00;99.90;;;;;;5115050;28;20027;-82
2023/09/26 06:22:39;;;;;;;25.85;24.05;;;24.10;99.90;;;;;;5080033;28;20065;-82
2023/09/26 06:25:06;;;;;;;27.15;25.05;;;24.20;99.90;;;;;;5076614;28;20064;-83
2023/09/26 06:27:36;;;;;;;27.40;25.13;;;24.20;99.90;;;;;;5076644;28;20027;-83
2023/09/26 06:30:04;;;;;;;27.55;25.50;;;24.50;99.90;;;;;;5081692;28;20019;-82
2023/09/26 06:32:31;;;;;;;27.80;25.63;;;25.10;99.90;;;;;;5115164;28;20016;-82
2023/09/26 06:35:02;;;;;;;27.85;25.65;;;25.30;99.90;;;;;;5114861;28;20385;-85
2023/09/26 06:37:30;;;;;;;28.08;26.08;;;25.50;99.90;;;;;;5079951;28;20042;-79
2023/09/26 06:40:00;;;;;;;28.20;25.90;;;26.10;99.90;;;;;;5114230;28;20091;-79
2023/09/26 06:42:27;;;;;;;27.90;25.80;;;25.90;99.90;;;;;;5114855;28;20028;-80
2023/09/26 06:44:53;;;;;;;26.80;24.98;;;25.20;99.90;;;;;;5114979;28;20015;-79
2023/09/26 06:47:19;;;;;;;27.17;24.85;;;24.70;99.90;;;;;;5114679;28;20066;-79
2023/09/26 06:49:48;;;;;;;26.35;24.30;;;24.30;99.90;;;;;;5097669;28;20051;-81
2023/09/26 06:52:16;;;;;;;26.23;24.35;;;24.00;99.90;;;;;;5114824;28;20385;-80
2023/09/26 06:54:44;;;;;;;25.92;23.85;;;23.80;99.90;;;;;;5096127;28;20030;-79
2023/09/26 06:57:15;;;;;;;25.58;23.88;;;23.40;99.90;;;;;;5114486;28;20043;-79
2023/09/26 06:59:42;;;;;;;25.63;23.58;;;23.30;99.90;;;;;;5114656;28;20032;-79
2023/09/26 07:02:08;;;;;;;25.55;23.73;;;23.00;99.90;;;;;;5114421;28;20115;-79
2023/09/26 07:04:36;;;;;;;25.52;23.83;;;22.90;99.90;;;;;;5114250;28;20115;-79
2023/09/26 07:07:03;;;;;;;26.52;24.52;;;22.80;99.90;;;;;;5080573;28;20019;-79
2023/09/26 07:09:29;;;;;;;26.95;24.40;;;23.00;99.90;;;;;;5114383;28;20031;-78
2023/09/26 07:11:56;;;;;;;25.50;23.63;;;23.20;99.90;;;;;;5113801;28;20023;-79
2023/09/26 07:14:23;;;;;;;25.13;23.52;;;23.60;99.90;;;;;;5097404;28;20527;-86
2023/09/26 07:16:52;;;;;;;25.73;23.92;;;24.00;99.90;;;;;;5082180;28;20039;-86
2023/09/26 07:19:19;;;;;;;25.52;23.52;;;24.10;99.90;;;;;;5081443;28;20027;-86
2023/09/26 07:21:45;;;;;;;26.67;24.63;;;24.00;99.90;;;;;;5076593;28;20030;-84
2023/09/26 07:24:12;;;;;;;26.10;24.30;;;24.00;99.90;;;;;;5092758;28;20035;-85
2023/09/26 07:26:39;;;;;;;25.80;24.02;;;23.90;99.90;;;;;;5091981;28;20024;-84
2023/09/26 07:29:08;;;;;;;26.40;24.52;;;23.80;99.90;;;;;;5079130;28;20027;-84
2023/09/26 07:31:35;;;;;;;26.35;24.50;;;23.60;99.90;;;;;;5095802;28;20034;-85
2023/09/26 07:34:02;;;;;;;26.30;24.60;;;23.60;99.90;;;;;;5079276;28;20024;-85
2023/09/26 07:36:28;;;;;;;26.38;24.27;;;23.60;99.90;;;;;;5078826;28;20040;-84
2023/09/26 07:38:54;;;;;;;25.95;24.25;;;23.50;99.90;;;;;;5096386;28;20063;-84
2023/09/26 07:41:21;;;;;;;25.65;23.95;;;23.40;99.90;;;;;;5078748;28;20081;-84
2023/09/26 07:43:47;;;;;;;25.73;23.80;;;23.40;99.90;;;;;;5095802;28;20032;-84
2023/09/26 07:46:14;;;;;;;25.85;23.80;;;23.50;99.90;;;;;;5095472;28;20016;-85
2023/09/26 07:48:45;;;;;;;25.80;23.63;;;23.40;99.90;;;;;;5078887;28;20080;-85
2023/09/26 07:51:12;;;;;;;25.13;22.95;;;23.40;99.90;;;;;;5075427;28;20028;-84
2023/09/26 07:53:39;;;;;;;24.45;22.40;;;23.40;99.90;;;;;;5093245;28;20024;-84
2023/09/26 07:56:05;;;;;;;25.00;23.05;;;23.10;99.90;;;;;;5088642;28;20119;-83
2023/09/26 07:58:32;;;;;;;24.83;22.77;;;22.90;99.90;;;;;;5072237;28;20538;-83
2023/09/26 08:01:00;;;;;;;24.35;22.20;;;22.80;99.90;;;;;;5071803;28;20033;-84
2023/09/26 08:03:27;;;;;;;25.42;22.83;;;22.70;99.90;;;;;;5073487;28;20043;-84
2023/09/26 08:06:01;;;;;;;24.80;22.40;;;22.80;99.90;;;;;;5072528;28;20031;-84
2023/09/26 08:08:29;;;;;;;;;;;22.90;99.90;;;;;;5072429;28;20307;-84
2023/09/26 08:10:57;;;;;;;24.85;22.77;;;23.00;99.90;;;;;;5072072;28;20005;-84
2023/09/26 08:13:24;;;;;;;25.10;22.90;;;23.20;99.90;;;;;;5071954;28;20478;-84
2023/09/26 08:15:50;;;;;;;24.90;22.77;;;23.60;99.90;;;;;;5082038;28;20378;-84
2023/09/26 08:18:17;;;;;;;25.60;23.30;;;23.90;99.90;;;;;;5074189;28;20036;-84
2023/09/26 08:20:43;;;;;;;24.67;22.80;;;24.40;99.90;;;;;;5091968;28;20030;-85
2023/09/26 08:23:10;;;;;;;26.00;24.20;;;25.10;99.90;;;;;;5075209;28;20168;-85
2023/09/26 08:25:37;;;;;;;25.80;24.08;;;25.40;99.90;;;;;;5075233;28;20024;-85
2023/09/26 08:28:04;;;;;;;25.55;23.73;;;25.40;99.90;;;;;;5090565;28;20044;-85
2023/09/26 08:30:33;;;;;;;26.13;24.05;;;25.20;99.90;;;;;;5095672;28;20091;-85
2023/09/26 08:33:00;;;;;;;25.00;23.08;;;24.80;99.90;;;;;;5079089;28;20039;-84
2023/09/26 08:35:26;;;;;;;25.90;23.80;;;24.50;99.90;;;;;;5095894;28;20027;-84
2023/09/26 08:37:52;;;;;;;25.55;23.42;;;24.20;99.90;;;;;;5078857;28;20087;-83
2023/09/26 08:40:24;;;;;;;25.27;23.40;;;24.10;99.90;;;;;;5096253;28;20438;-85
2023/09/26 08:42:53;;;;;;;25.88;23.75;;;24.30;99.90;;;;;;5078965;28;20439;-85
2023/09/26 08:45:20;;;;;;;26.33;24.05;;;24.90;99.90;;;;;;5096049;28;20062;-85
2023/09/26 08:47:48;;;;;;;26.42;24.38;;;25.00;99.90;;;;;;5096031;28;20047;-84
2023/09/26 08:50:15;;;;;;;27.13;25.13;;;25.30;99.90;;;;;;5076965;28;20103;-84
2023/09/26 08:52:42;;;;;;;26.15;24.42;;;25.60;99.90;;;;;;5095902;28;20442;-84
2023/09/26 08:55:09;;;;;;;26.65;24.77;;;25.60;99.90;;;;;;5080588;28;20077;-85
2023/09/26 08:57:38;;;;;;;27.17;25.35;;;25.80;99.90;;;;;;5096480;28;20052;-85
2023/09/26 09:00:08;;;;;;;28.17;26.15;;;25.80;99.90;;;;;;5078871;28;20111;-85
2023/09/26 09:02:34;;;;;;;27.90;26.02;;;26.00;99.90;;;;;;5076979;28;20069;-84
2023/09/26 09:05:05;;;;;;;27.85;25.83;;;25.90;99.90;;;;;;5070259;28;20465;-85
2023/09/26 09:07:32;;;;;;;28.55;26.33;;;25.90;99.90;;;;;;5095289;28;20039;-85
2023/09/26 09:10:05;;;;;;;27.40;25.73;;;25.80;99.90;;;;;;5067521;28;20046;-85
2023/09/26 09:12:31;;;;;;;27.70;25.73;;;25.50;99.90;;;;;;5086240;28;20024;-85
2023/09/26 09:14:58;;;;;;;28.70;26.60;;;25.80;99.90;;;;;;5078154;28;20101;-84
2023/09/26 09:17:24;;;;;;;27.73;25.88;;;25.30;99.90;;;;;;5078489;28;20051;-84
2023/09/26 09:19:52;;;;;;;27.80;25.80;;;25.10;99.90;;;;;;5085930;28;20021;-85
2023/09/26 09:22:22;;;;;;;27.92;25.90;;;24.90;99.90;;;;;;5075257;28;20025;-85
2023/09/26 09:24:58;;;;;;;27.50;25.23;;;25.10;99.90;;;;;;5058720;28;20051;-85
2023/09/26 09:27:43;;;;;;;27.23;25.23;;;25.30;99.90;;;;;;5096457;28;20485;-85
2023/09/26 09:30:12;;;;;;;27.10;25.35;;;25.60;99.90;;;;;;5085068;28;20040;-85
2023/09/26 09:32:43;;;;;;;27.48;25.67;;;25.60;99.90;;;;;;5076609;28;20411;-85
2023/09/26 09:35:11;;;;;;;28.10;26.20;;;25.60;99.90;;;;;;5078255;28;20033;-85
2023/09/26 09:37:49;;;;;;;27.23;25.38;;;26.00;99.90;;;;;;5078182;28;20040;-85
2023/09/26 09:40:19;;;;;;;27.27;25.58;;;26.00;99.90;;;;;;5092131;28;20485;-85
2023/09/26 09:42:52;;;;;;;27.42;25.73;;;25.90;99.90;;;;;;5077866;28;20028;-85
2023/09/26 09:45:20;;;;;;;27.40;25.40;;;25.60;99.90;;;;;;5078105;28;20032;-85
2023/09/26 09:47:48;;;;;;;27.60;25.55;;;25.30;99.90;;;;;;5078291;28;20469;-84
2023/09/26 09:50:16;;;;;;;27.25;25.45;;;25.30;99.90;;;;;;5082823;28;20474;-85
2023/09/26 09:52:44;;;;;;;28.25;26.38;;;25.10;99.90;;;;;;5074708;28;20033;-84
2023/09/26 09:55:23;;;;;;;28.55;26.75;;;25.10;99.90;;;;;;5057766;28;20028;-84
2023/09/26 09:57:51;;;;;;;28.23;26.33;;;25.30;99.90;;;;;;5057592;28;20063;-84
2023/09/26 10:00:24;;;;;;;28.45;26.27;;;25.20;99.90;;;;;;5069579;28;20382;-86
2023/09/26 10:02:58;;;;;;;28.35;26.15;;;25.10;99.90;;;;;;5077927;28;20028;-86
2023/09/26 10:05:51;;;;;;;28.27;26.02;;;25.10;99.90;;;;;;5078652;28;20492;-82
2023/09/26 10:08:34;;;;;;;28.15;26.27;;;25.00;99.90;;;;;;5078651;28;20366;-81
2023/09/26 10:11:11;;;;;;;28.13;26.15;;;25.10;99.90;;;;;;5094745;28;20031;-85
2023/09/26 10:13:47;;;;;;;28.35;26.20;;;25.10;99.90;;;;;;5094902;28;20035;-74
2023/09/26 10:16:17;;;;;;;28.70;26.70;;;24.80;99.90;;;;;;5094715;28;20069;-74
2023/09/26 10:18:49;;;;;;;28.23;26.23;;;24.60;99.90;;;;;;5094880;28;20039;-74
2023/09/26 10:21:30;;;;;;;28.02;25.70;;;24.60;99.90;;;;;;5093510;28;20073;-75
2023/09/26 10:24:06;;;;;;;27.33;25.25;;;24.70;99.90;;;;;;5093444;28;20104;-75
2023/09/26 10:26:34;;;;;;;27.13;25.17;;;24.70;99.90;;;;;;5093486;28;20032;-75
2023/09/26 10:29:20;;;;;;;26.17;24.40;;;24.70;99.90;;;;;;5094040;28;20023;-75
2023/09/26 10:31:53;;;;;;;26.30;24.50;;;24.40;99.90;;;;;;5094713;28;20077;-74
2023/09/26 10:34:28;;;;;;;25.52;23.80;;;24.30;99.90;;;;;;5093368;28;20099;-75
2023/09/26 10:36:58;;;;;;;;;;;24.40;99.90;;;;;;5094128;28;20074;-75
2023/09/26 10:39:36;;;;;;;26.05;24.02;;;24.60;99.90;;;;;;5094404;28;19908;-72
2023/09/26 10:42:11;;;;;;;25.15;23.50;;;24.80;99.90;;;;;;5094455;28;20051;-73
2023/09/26 10:45:00;;;;;;;26.15;24.45;;;24.70;99.90;;;;;;5094373;28;20031;-73
2023/09/26 10:47:29;;;;;;;26.70;24.88;;;24.60;99.90;;;;;;5078714;28;20056;-73
2023/09/26 10:49:59;;;;;;;27.25;25.45;;;24.60;99.90;;;;;;5093774;28;20527;-73
2023/09/26 10:52:28;;;;;;;29.52;27.20;;;24.90;99.90;;;;;;5094101;28;20036;-73
2023/09/26 10:55:43;;;;;;;35.13;31.83;;;25.10;99.90;;;;;;5094106;28;20031;-73
2023/09/26 10:59:35;;;;;;;32.88;29.88;;;25.10;99.90;;;;;;5084206;28;20047;-73
2023/09/26 12:41:59;;;;;;;29.42;27.33;;;25.90;99.90;;;;;;5790334;23;20091;-89
2023/09/26 12:44:36;;;;;;;30.15;28.05;;;26.00;99.90;;;;;;4893376;29;20125;-91
2023/09/26 12:47:02;;;;;;;29.35;26.98;;;26.10;99.90;;;;;;4886721;29;20036;-89
2023/09/26 12:49:28;;;;;;;28.90;26.90;;;26.20;99.90;;;;;;4885231;29;20115;-89
2023/09/26 12:51:55;;;;;;;29.13;27.13;;;26.20;99.90;;;;;;4885744;29;20097;-88
2023/09/26 12:54:22;;;;;;;29.92;27.67;;;26.20;99.90;;;;;;4900822;29;20481;-92
2023/09/26 12:56:48;;;;;;;29.50;27.40;;;26.00;99.90;;;;;;4900281;29;20075;-88
2023/09/26 12:59:15;;;;;;;29.83;27.77;;;25.80;99.90;;;;;;4900576;29;20437;-87
2023/09/26 13:01:42;;;;;;;29.50;27.40;;;25.70;99.90;;;;;;4900943;29;20032;-89
2023/09/26 13:04:08;;;;;;;29.83;27.73;;;25.60;99.90;;;;;;4900862;29;20051;-88
2023/09/26 13:06:34;;;;;;;28.67;26.77;;;25.60;99.90;;;;;;4900028;29;20032;-88
2023/09/26 13:09:01;;;;;;;29.10;26.83;;;25.50;99.90;;;;;;4901717;29;20032;-87
2023/09/26 13:11:29;;;;;;;28.58;26.50;;;25.60;99.90;;;;;;4899106;29;20032;-87
2023/09/26 13:13:56;;;;;;;28.00;26.00;;;25.80;99.90;;;;;;4915960;29;20062;-86
2023/09/26 13:16:22;;;;;;;27.98;25.98;;;25.90;99.90;;;;;;4902126;29;20028;-88
2023/09/26 13:18:50;;;;;;;28.65;26.48;;;26.00;99.90;;;;;;4904069;29;20473;-87
2023/09/26 13:21:18;;;;;;;28.75;26.33;;;26.20;99.90;;;;;;4903921;29;20036;-89
2023/09/26 13:23:45;;;;;;;29.08;26.92;;;26.30;99.90;;;;;;4911337;29;20513;-87
2023/09/26 13:26:16;;;;;;;28.88;26.42;;;26.40;99.90;;;;;;4908151;29;20119;-88
2023/09/26 13:28:43;;;;;;;29.00;26.80;;;26.40;99.90;;;;;;4903779;29;20088;-88
2023/09/26 13:31:09;;;;;;;29.52;27.05;;;26.30;99.90;;;;;;4903103;29;20482;-89
2023/09/26 13:33:35;;;;;;;29.45;27.13;;;26.30;99.90;;;;;;4902840;29;20127;-87
2023/09/26 13:36:02;;;;;;;29.30;27.13;;;26.20;99.90;;;;;;4903091;29;20035;-88
2023/09/26 13:38:29;;;;;;;30.55;28.25;;;26.00;99.90;;;;;;4903134;29;20043;-88
2023/09/26 13:40:55;;;;;;;29.50;27.45;;;26.00;99.90;;;;;;4902966;29;20123;-88
2023/09/26 13:43:22;;;;;;;30.20;27.63;;;26.10;99.90;;;;;;4907733;29;20059;-88
2023/09/26 13:45:48;;;;;;;29.38;27.30;;;26.20;99.90;;;;;;4900069;29;20060;-87
2023/09/26 13:48:20;;;;;;;29.95;27.55;;;26.20;99.90;;;;;;4899785;29;20033;-88
2023/09/26 13:50:50;;;;;;;30.63;28.23;;;26.30;99.90;;;;;;4900617;29;20028;-88
2023/09/26 13:53:16;;;;;;;31.85;29.00;;;26.40;99.90;;;;;;4903446;29;20039;-90
2023/09/26 13:55:43;;;;;;;31.02;28.38;;;26.30;99.90;;;;;;4903419;29;20066;-89
2023/09/26 13:58:09;;;;;;;31.08;28.35;;;26.10;99.90;;;;;;4903308;29;20036;-90
2023/09/26 14:00:37;;;;;;;29.88;27.60;;;26.20;99.90;;;;;;4903934;29;20435;-88
2023/09/26 14:03:06;;;;;;;30.25;27.10;;;26.00;99.90;;;;;;4899751;29;20029;-88
2023/09/26 14:05:34;;;;;;;29.23;26.80;;;25.80;99.90;;;;;;4899995;29;20036;-88
2023/09/26 14:08:02;;;;;;;28.95;26.55;;;25.80;99.90;;;;;;4899774;29;20372;-87
2023/09/26 14:10:29;;;;;;;29.30;27.00;;;25.80;99.90;;;;;;4900351;29;20036;-86
2023/09/26 14:12:55;;;;;;;29.58;27.27;;;25.60;99.90;;;;;;4902150;29;20028;-88
2023/09/26 14:15:21;;;;;;;29.95;27.58;;;25.70;99.90;;;;;;4902746;29;20032;-88
2023/09/26 14:17:48;;;;;;;30.38;27.67;;;25.70;99.90;;;;;;4902742;29;20047;-89